createdAt,value
2018-12-18T00:00:18.691Z,13.67
2018-12-18T00:02:50.684Z,13.77
2018-12-18T00:05:25.315Z,12.40
2018-12-18T00:07:54.011Z,13.50
2018-12-18T00:10:25.232Z,10.30
2018-12-18T00:12:53.901Z,11.07
2018-12-18T00:15:22.513Z,13.93
2018-12-18T00:17:51.111Z,13.60
2018-12-18T00:20:19.887Z,13.57
2018-12-18T00:22:48.456Z,13.33
2018-12-18T00:25:17.105Z,12.20
2018-12-18T00:27:45.698Z,10.87
2018-12-18T00:30:14.530Z,12.30
2018-12-18T00:32:43.179Z,12.93
2018-12-18T00:35:11.740Z,13.10
2018-12-18T00:37:40.351Z,13.47
2018-12-18T00:40:09.264Z,12.40
2018-12-18T00:42:37.829Z,10.63
2018-12-18T00:45:06.812Z,12.30
2018-12-18T00:47:35.408Z,13.47
2018-12-18T00:50:04.186Z,13.03
2018-12-18T00:52:32.859Z,12.27
2018-12-18T00:55:01.460Z,13.70
2018-12-18T00:57:30.234Z,10.97
2018-12-18T00:59:58.862Z,11.37
2018-12-18T01:02:27.483Z,13.03
2018-12-18T01:04:56.191Z,13.10
2018-12-18T01:07:24.877Z,12.83
2018-12-18T01:09:53.566Z,12.47
2018-12-18T01:12:22.175Z,13.23
2018-12-18T01:14:50.770Z,13.60
2018-12-18T01:17:19.661Z,13.93
2018-12-18T01:19:48.353Z,13.43
2018-12-18T01:22:16.988Z,13.93
2018-12-18T01:24:45.783Z,12.23
2018-12-18T01:27:14.337Z,14.47
2018-12-18T01:29:42.925Z,14.30
2018-12-18T01:32:11.546Z,14.23
2018-12-18T01:34:40.277Z,11.90
2018-12-18T01:37:08.898Z,11.47
2018-12-18T01:39:37.466Z,13.10
2018-12-18T01:42:06.399Z,13.70
2018-12-18T01:44:34.994Z,13.10
2018-12-18T01:47:03.616Z,13.47
2018-12-18T01:49:32.220Z,13.97
2018-12-18T01:52:00.819Z,11.33
2018-12-18T01:54:29.449Z,13.23
2018-12-18T01:56:58.112Z,12.30
2018-12-18T01:59:26.711Z,13.57
2018-12-18T02:01:55.316Z,14.50
2018-12-18T02:04:23.913Z,14.07
2018-12-18T02:06:52.516Z,13.73
2018-12-18T02:09:21.116Z,14.77
2018-12-18T02:11:49.750Z,15.60
2018-12-18T02:14:18.354Z,14.77
2018-12-18T02:16:46.977Z,14.50
2018-12-18T02:19:15.566Z,14.50
2018-12-18T02:21:44.196Z,14.63
2018-12-18T02:24:12.966Z,14.50
2018-12-18T02:26:41.591Z,14.70
2018-12-18T02:29:10.244Z,15.20
2018-12-18T02:31:38.824Z,16.70
2018-12-18T02:34:13.809Z,15.47
2018-12-18T02:36:38.046Z,16.23
2018-12-18T02:39:07.833Z,14.93
2018-12-18T02:43:05.856Z,15.27
2018-12-18T02:45:34.539Z,14.77
2018-12-18T02:48:03.147Z,16.03
2018-12-18T02:50:31.720Z,13.20
2018-12-18T02:53:00.364Z,16.03
2018-12-18T02:55:28.985Z,16.03
2018-12-18T02:57:57.904Z,16.87
2018-12-18T03:00:26.548Z,16.03
2018-12-18T03:02:55.162Z,16.10
2018-12-18T03:05:24.308Z,16.87
2018-12-18T03:07:52.927Z,15.07
2018-12-18T03:10:21.552Z,17.10
2018-12-18T03:12:50.118Z,15.63
2018-12-18T03:15:18.740Z,17.10
2018-12-18T03:17:47.342Z,16.73
2018-12-18T03:20:15.953Z,16.37
2018-12-18T03:22:44.626Z,16.97
2018-12-18T03:25:13.355Z,15.80
2018-12-18T03:27:41.975Z,16.40
2018-12-18T03:30:11.384Z,16.50
2018-12-18T03:32:48.995Z,18.13
2018-12-18T03:35:17.605Z,17.67
2018-12-18T03:37:46.245Z,17.03
2018-12-18T03:40:15.327Z,16.53
2018-12-18T03:42:43.976Z,16.53
2018-12-18T03:45:12.672Z,16.17
2018-12-18T03:47:41.226Z,16.83
2018-12-18T03:50:09.882Z,15.60
2018-12-18T03:52:38.453Z,15.37
2018-12-18T03:55:07.255Z,15.57
2018-12-18T03:57:35.859Z,15.17
2018-12-18T04:00:09.901Z,16.70
2018-12-18T04:02:38.568Z,16.87
2018-12-18T04:05:07.414Z,17.30
2018-12-18T04:07:36.909Z,14.47
2018-12-18T04:10:06.206Z,18.00
2018-12-18T04:12:34.815Z,16.03
2018-12-18T04:15:03.760Z,16.17
2018-12-18T04:17:32.341Z,15.57
2018-12-18T04:20:00.964Z,17.63
2018-12-18T04:22:29.630Z,17.33
2018-12-18T04:24:58.252Z,16.37
2018-12-18T04:27:33.350Z,16.17
2018-12-18T04:30:02.007Z,13.73
2018-12-18T04:32:30.730Z,17.07
2018-12-18T04:35:03.735Z,16.87
2018-12-18T04:37:32.378Z,17.27
2018-12-18T04:40:01.054Z,19.00
2018-12-18T04:42:29.856Z,18.13
2018-12-18T04:44:58.569Z,18.83
2018-12-18T04:47:27.229Z,18.67
2018-12-18T04:49:56.002Z,18.83
2018-12-18T04:55:56.507Z,19.67
2018-12-18T04:58:25.385Z,17.00
2018-12-18T05:00:54.095Z,19.60
2018-12-18T05:03:23.561Z,19.43
2018-12-18T05:05:52.223Z,18.03
2018-12-18T05:08:20.971Z,20.53
2018-12-18T05:10:49.633Z,21.77
2018-12-18T05:13:18.224Z,19.73
2018-12-18T05:15:46.950Z,18.00
2018-12-18T05:18:15.505Z,15.77
2018-12-18T05:20:44.134Z,16.13
2018-12-18T05:23:12.766Z,19.73
2018-12-18T05:27:10.471Z,19.47
2018-12-18T05:29:39.106Z,17.83
2018-12-18T05:32:07.811Z,19.67
2018-12-18T05:34:36.419Z,20.20
2018-12-18T05:37:05.041Z,20.23
2018-12-18T05:39:33.670Z,20.27
2018-12-18T05:42:02.308Z,20.20
2018-12-18T05:44:30.907Z,18.77
2018-12-18T05:46:59.622Z,19.47
2018-12-18T05:49:28.277Z,21.27
2018-12-18T05:51:56.991Z,18.93
2018-12-18T05:54:25.572Z,19.70
2018-12-18T05:56:54.221Z,20.70
2018-12-18T05:59:22.849Z,18.50
2018-12-18T06:01:51.512Z,20.53
2018-12-18T06:04:20.157Z,21.20
2018-12-18T06:06:48.798Z,21.00
2018-12-18T06:09:17.445Z,19.80
2018-12-18T06:15:17.755Z,18.47
2018-12-18T06:17:46.454Z,19.63
2018-12-18T06:20:15.059Z,21.07
2018-12-18T06:22:43.640Z,18.77
2018-12-18T06:25:12.306Z,20.20
2018-12-18T06:27:40.941Z,18.57
2018-12-18T06:30:15.155Z,19.20
2018-12-18T06:32:43.749Z,19.20
2018-12-18T06:35:12.354Z,19.10
2018-12-18T06:37:40.960Z,20.20
2018-12-18T06:40:09.626Z,20.83
2018-12-18T06:42:38.273Z,17.70
2018-12-18T06:45:07.599Z,19.63
2018-12-18T06:47:36.302Z,20.83
2018-12-18T06:50:05.097Z,20.40
2018-12-18T06:52:33.732Z,16.93
2018-12-18T06:55:02.376Z,18.60
2018-12-18T06:57:30.970Z,20.60
2018-12-18T06:59:59.561Z,21.47
2018-12-18T14:10:17.956Z,17.40
2018-12-18T14:12:50.723Z,19.87
2018-12-18T14:15:20.101Z,20.60
2018-12-18T14:17:48.792Z,17.43
2018-12-18T14:20:17.391Z,19.93
2018-12-18T14:22:46.000Z,20.10
2018-12-18T14:25:14.653Z,17.70
2018-12-18T14:27:43.291Z,17.93
2018-12-18T14:30:12.370Z,20.03
2018-12-18T14:32:41.019Z,18.67
2018-12-18T14:35:09.711Z,19.07
2018-12-18T14:37:38.340Z,19.53
2018-12-18T14:40:07.085Z,20.23
2018-12-18T14:42:35.681Z,19.57
2018-12-18T14:45:04.622Z,19.40
2018-12-18T14:47:33.416Z,18.60
2018-12-18T14:50:02.228Z,20.87
2018-12-18T14:52:30.871Z,18.93
2018-12-18T14:54:59.502Z,20.50
2018-12-18T14:57:28.123Z,19.67
2018-12-18T14:59:56.772Z,18.93
2018-12-18T15:02:25.562Z,19.37
2018-12-18T15:04:54.166Z,19.83
2018-12-18T15:07:22.802Z,19.23
2018-12-18T15:09:51.538Z,20.07
2018-12-18T15:12:20.182Z,19.47
2018-12-18T15:14:48.853Z,20.23
2018-12-18T15:17:17.844Z,18.53
2018-12-18T15:19:46.431Z,20.07
2018-12-18T15:22:15.084Z,18.90
2018-12-18T15:24:43.657Z,19.37
2018-12-18T15:27:12.206Z,20.70
2018-12-18T15:29:40.826Z,19.07
2018-12-18T15:32:09.508Z,18.73
2018-12-18T15:34:38.273Z,20.90
2018-12-18T15:37:09.755Z,18.77
2018-12-18T15:39:37.549Z,21.40
2018-12-18T15:42:06.241Z,19.13
2018-12-18T15:44:34.896Z,18.33
2018-12-18T15:47:03.554Z,21.23
2018-12-18T15:49:32.196Z,21.40
2018-12-18T15:52:00.781Z,22.53
2018-12-18T15:54:29.430Z,18.93
2018-12-18T15:56:58.043Z,20.17
2018-12-18T15:59:26.672Z,20.90
2018-12-18T16:01:55.291Z,19.87
2018-12-18T16:04:23.865Z,22.93
2018-12-18T16:06:52.529Z,20.43
2018-12-18T16:09:21.246Z,20.87
2018-12-18T16:11:49.963Z,22.67
2018-12-18T16:14:18.642Z,17.17
2018-12-18T16:16:47.305Z,18.23
2018-12-18T16:19:16.204Z,18.10
2018-12-18T16:21:45.238Z,17.67
2018-12-18T16:24:13.876Z,20.07
2018-12-18T16:26:43.252Z,21.63
2018-12-18T16:29:11.890Z,22.33
2018-12-18T16:31:40.560Z,23.07
2018-12-18T16:34:09.248Z,20.47
2018-12-18T16:36:37.993Z,20.10
2018-12-18T16:39:08.104Z,20.77
2018-12-18T16:41:37.054Z,23.37
2018-12-18T16:44:05.703Z,22.13
2018-12-18T16:46:34.291Z,18.30
2018-12-18T16:49:02.832Z,20.73
2018-12-18T16:51:31.532Z,21.07
2018-12-18T16:54:00.697Z,20.77
2018-12-18T16:56:29.283Z,19.33
2018-12-18T16:58:58.310Z,22.60
2018-12-18T17:01:26.911Z,22.33
2018-12-18T17:03:55.574Z,20.33
2018-12-18T17:06:24.181Z,21.40
2018-12-18T17:08:52.784Z,22.57
2018-12-18T17:11:21.564Z,22.07
2018-12-18T17:15:19.669Z,23.20
2018-12-18T17:17:48.241Z,22.30
2018-12-18T17:20:16.834Z,21.30
2018-12-18T17:22:45.567Z,21.47
2018-12-18T17:26:43.582Z,23.87
2018-12-18T17:29:12.264Z,19.53
2018-12-18T17:31:40.871Z,20.60
2018-12-18T17:34:09.531Z,18.43
2018-12-18T17:36:38.117Z,19.13
2018-12-18T17:39:08.208Z,22.50
2018-12-18T17:41:37.111Z,21.53
2018-12-18T17:44:05.729Z,20.53
2018-12-18T17:46:34.325Z,18.63
2018-12-18T17:49:02.931Z,21.80
2018-12-18T17:52:02.398Z,21.00
2018-12-18T17:54:31.158Z,17.97
2018-12-18T17:56:59.765Z,20.40
2018-12-18T17:59:28.373Z,18.80
2018-12-18T18:01:56.928Z,20.10
2018-12-18T18:04:25.533Z,20.07
2018-12-18T18:06:54.233Z,20.60
2018-12-18T18:09:22.980Z,18.63
2018-12-18T18:16:27.957Z,18.93
2018-12-18T18:18:56.590Z,16.27
2018-12-18T18:21:25.421Z,19.40
2018-12-18T18:23:54.005Z,18.77
2018-12-18T18:26:22.769Z,20.20
2018-12-18T18:28:51.485Z,21.30
2018-12-18T18:31:20.097Z,20.90
2018-12-18T18:33:49.095Z,17.03
2018-12-18T18:36:17.730Z,18.07
2018-12-18T18:38:46.319Z,20.67
2018-12-18T18:41:14.884Z,21.83
2018-12-18T18:43:43.496Z,21.73
2018-12-18T18:47:41.466Z,20.80
2018-12-18T18:50:10.559Z,18.80
2018-12-18T18:52:39.228Z,17.30
2018-12-18T18:55:07.827Z,21.70
2018-12-18T18:57:36.525Z,18.67
2018-12-18T19:00:11.616Z,22.33
2018-12-18T19:02:40.345Z,20.30
2018-12-18T19:05:09.101Z,20.63
2018-12-18T19:07:38.417Z,20.90
2018-12-18T19:10:08.639Z,19.97
2018-12-18T19:12:37.413Z,20.33
2018-12-18T19:15:06.741Z,19.30
2018-12-18T19:17:35.447Z,17.70
2018-12-18T19:20:04.503Z,19.53
2018-12-18T19:22:33.274Z,19.90
2018-12-18T19:25:01.891Z,18.00
2018-12-18T19:27:30.566Z,18.87
2018-12-18T19:29:59.131Z,16.10
2018-12-18T19:32:27.748Z,18.63
2018-12-18T19:34:56.358Z,16.80
2018-12-18T19:37:24.953Z,18.30
2018-12-18T19:39:53.619Z,17.57
2018-12-18T19:42:22.300Z,15.70
2018-12-18T19:44:50.991Z,18.23
2018-12-18T19:47:19.585Z,14.63
2018-12-18T19:49:48.110Z,16.67
2018-12-18T19:52:16.704Z,17.40
2018-12-18T19:54:45.336Z,17.27
2018-12-18T19:57:13.881Z,16.17
2018-12-18T19:59:42.521Z,17.13
2018-12-18T20:02:11.085Z,17.77
2018-12-18T20:04:39.703Z,15.23
2018-12-18T20:07:08.262Z,17.87
2018-12-18T20:09:36.942Z,18.60
2018-12-18T20:12:05.579Z,16.53
2018-12-18T20:14:34.297Z,19.13
2018-12-18T20:17:03.063Z,19.00
2018-12-18T20:19:31.827Z,17.10
2018-12-18T20:22:01.327Z,15.83
2018-12-18T20:24:29.965Z,15.50
2018-12-18T20:26:58.558Z,16.87
2018-12-18T20:29:27.197Z,17.73
2018-12-18T20:31:55.818Z,16.23
2018-12-18T20:34:24.489Z,17.03
2018-12-18T20:36:53.081Z,17.80
2018-12-18T20:39:21.684Z,16.97
2018-12-18T20:41:50.314Z,15.10
2018-12-18T20:44:18.888Z,17.53
2018-12-18T20:46:47.597Z,16.77
2018-12-18T20:49:16.157Z,15.63
2018-12-18T20:51:44.766Z,16.33
2018-12-18T20:54:13.332Z,15.13
2018-12-18T20:56:42.118Z,13.50
2018-12-18T20:59:10.758Z,13.97
2018-12-18T21:01:39.357Z,17.37
2018-12-18T21:04:07.969Z,16.53
2018-12-18T21:06:36.644Z,16.13
2018-12-18T21:09:07.895Z,15.93
2018-12-18T21:11:36.448Z,15.57
2018-12-18T21:14:05.379Z,17.20
2018-12-18T21:16:34.168Z,16.23
2018-12-18T21:19:02.754Z,16.23
2018-12-18T21:21:31.439Z,15.40
2018-12-18T21:24:00.003Z,12.50
2018-12-18T21:26:29.492Z,14.40
2018-12-18T21:28:58.087Z,15.57
2018-12-18T21:31:26.775Z,14.67
2018-12-18T21:33:55.386Z,17.43
2018-12-18T21:36:23.967Z,14.03
2018-12-18T21:38:52.540Z,15.40
2018-12-18T21:41:21.082Z,15.87
2018-12-18T21:43:49.663Z,13.87
2018-12-18T21:46:18.397Z,13.87
2018-12-18T21:48:47.111Z,16.60
2018-12-18T21:51:15.797Z,15.53
2018-12-18T21:53:44.516Z,15.00
2018-12-18T21:56:13.163Z,15.07
2018-12-18T21:58:41.742Z,15.30
2018-12-18T22:01:10.326Z,15.63
2018-12-18T22:03:38.976Z,15.20
2018-12-18T22:06:07.495Z,14.63
2018-12-18T22:08:36.956Z,15.13
2018-12-18T22:11:05.914Z,13.90
2018-12-18T22:13:34.474Z,16.73
2018-12-18T22:16:03.148Z,15.67
2018-12-18T22:18:31.756Z,16.57
2018-12-18T22:21:00.384Z,16.97
2018-12-18T22:23:28.989Z,17.27
2018-12-18T22:25:57.649Z,15.63
2018-12-18T22:28:26.296Z,16.17
2018-12-18T22:30:54.931Z,15.87
2018-12-18T22:33:23.600Z,15.63
2018-12-18T22:35:52.159Z,13.73
2018-12-18T22:38:20.786Z,15.30
2018-12-18T22:40:49.394Z,14.07
2018-12-18T22:43:17.998Z,15.17
2018-12-18T22:45:46.599Z,14.90
2018-12-18T22:48:15.215Z,14.10
2018-12-18T22:50:43.810Z,14.10
2018-12-18T22:53:12.380Z,13.03
2018-12-18T22:55:44.830Z,13.17
2018-12-18T22:58:11.605Z,13.70
2018-12-18T23:00:45.276Z,12.67
2018-12-18T23:03:13.864Z,13.47
2018-12-18T23:05:42.520Z,13.40
2018-12-18T23:08:11.200Z,12.47
2018-12-18T23:10:39.730Z,13.33
2018-12-18T23:13:08.388Z,12.90
2018-12-18T23:15:36.978Z,13.87
2018-12-18T23:18:05.593Z,13.70
2018-12-18T23:20:34.137Z,12.97
2018-12-18T23:23:02.827Z,11.07
2018-12-18T23:25:31.481Z,10.23
2018-12-18T23:28:00.083Z,12.80
2018-12-18T23:30:28.651Z,13.80
2018-12-18T23:32:57.249Z,13.27
2018-12-18T23:35:25.888Z,14.53
2018-12-18T23:37:54.507Z,13.43
2018-12-18T23:40:23.086Z,13.93
2018-12-18T23:42:51.623Z,12.97
2018-12-18T23:45:20.219Z,13.57
2018-12-18T23:47:48.764Z,14.60
2018-12-18T23:50:17.321Z,14.33
2018-12-18T23:52:45.925Z,14.60
2018-12-18T23:55:14.535Z,15.50
2018-12-18T23:57:43.103Z,14.57
